Airfield :
LOGIN :

Register | Disclaimer

   EN    FR    IT 

 










Legend :    VFR   Marginal VFR   IFR   Intensive IFR   Very Intensive IFR
Visi :
Ceiling :
>= 8 km
>= 3000ft
5 to 8 km
1000 to 3000 ft
1500m to 5 km
500 to 1000 ft
800 to 1500m
200 to 500 ft
< 800m
< 200 ft
Symbols :   Thunderstorms  Fog  Heavy snow  Heavy precipitations  Wind > 20 kt
SIGMETs :     Misc.  Thunderstorms  Icing  Turbulence  Mountain Waves  Volcanic Ashes






- Airport Elevation : 160 ft
- IATA code : LRT


LFRH - Lorient Lann Bihoue

CURRENT METAR :
  • 092000Z AUTO 28006KT CAVOK 06/03 Q1029 NOSIG

EXPIRED METARs :
  • 091930Z AUTO 30005KT CAVOK 06/03 Q1028 NOSIG
  • 091900Z AUTO 28005KT CAVOK 06/04 Q1028 NOSIG
  • 091830Z AUTO 25005KT 9999 NSC 06/03 Q1027 NOSIG
  • 091800Z AUTO 29005KT CAVOK 07/04 Q1027 NOSIG
  • 091730Z AUTO 28005KT CAVOK 08/04 Q1027 NOSIG

TAF TAF LFRH
Valid from the 09 at 18:00 until the 10 at 18:00 UTC


091700Z 0918/1018 30004KT CAVOK
TEMPO 0922/1004 2500 BR
PROB30 1002/1004 1000 BCFG
BECMG 1006/1008 20010G23KT BKN012 OVC020
BECMG 1011/1013 20015G33KT 1500 RADZ
TEMPO 1012/1015 BKN007 OVC010
TEMPO 1016/1018 BKN003 OVC009



MET'MAP, your aeronautical weather chart ! - Copyright ORBIFLY December 2007 - Disclaimer

ORBIFLY MET'MAP TEAM :

Programming & Development : Alexandra Zaïnal
Concept & original design : Baudouin d'Aumeries
Assistance for programming : Marc-Olivier Méhu
Technical & hardware support : Manuel Goepfert

Contact : metmap@orbifly.com




SOURCES & CREDITS :

   NOAA